SIA961 WIII-WSSS
Flight info
| Callsign | SIA961 |
|---|---|
| Flight time | N/A |
| Altitude | 36000 |
| Route | DOLTA G579 REPOV REPOV2A |
| Aircraft | A359/H-SDE2E3GHIJ3J4J5LM1ORWXY/LB1D1 |
Departure
| Time | 2026-04-28 10:56 |
|---|---|
| Airport | Soekarno-Hatta International Airport (WIII) |
Arrival
| Time | N/A |
|---|---|
| Airport | Singapore Changi Airport (WSSS) |
| Time | Latitude | Longitude | Altitude | Speed | Heading |
|---|---|---|---|---|---|
| 2026-04-28 10:21 | -6.11784 | 106.66380 | 39 ft | 0 kts | 157° |
| 2026-04-28 10:42 | -6.11783 | 106.66380 | 39 ft | 2 kts | 157° |
| 2026-04-28 10:42 | -6.11761 | 106.66371 | 13 ft | 4 kts | 146° |
| 2026-04-28 10:43 | -6.11747 | 106.66357 | 38 ft | 4 kts | 130° |
| 2026-04-28 10:43 | -6.11730 | 106.66336 | 36 ft | 4 kts | 128° |
| 2026-04-28 10:43 | -6.11717 | 106.66317 | 36 ft | 1 kts | 117° |
| 2026-04-28 10:46 | -6.11709 | 106.66332 | 37 ft | 8 kts | 63° |
| 2026-04-28 10:46 | -6.11659 | 106.66401 | 38 ft | 8 kts | 24° |
| 2026-04-28 10:46 | -6.11598 | 106.66391 | 38 ft | 17 kts | 343° |
| 2026-04-28 10:46 | -6.11412 | 106.66311 | 38 ft | 18 kts | 337° |
| 2026-04-28 10:47 | -6.11354 | 106.66247 | 38 ft | 13 kts | 270° |
| 2026-04-28 10:47 | -6.11386 | 106.66147 | 38 ft | 16 kts | 249° |
| 2026-04-28 10:47 | -6.11427 | 106.66039 | 37 ft | 18 kts | 249° |
| 2026-04-28 10:47 | -6.11475 | 106.65920 | 38 ft | 19 kts | 248° |
| 2026-04-28 10:48 | -6.11543 | 106.65750 | 39 ft | 40 kts | 248° |
| 2026-04-28 10:48 | -6.11635 | 106.65519 | 40 ft | 35 kts | 249° |
| 2026-04-28 10:48 | -6.11750 | 106.65228 | 41 ft | 48 kts | 248° |
| 2026-04-28 10:48 | -6.11873 | 106.64919 | 42 ft | 47 kts | 248° |
| 2026-04-28 10:49 | -6.12001 | 106.64607 | 43 ft | 57 kts | 249° |
| 2026-04-28 10:49 | -6.12172 | 106.64173 | 44 ft | 68 kts | 248° |
| 2026-04-28 10:49 | -6.12242 | 106.63919 | 44 ft | 23 kts | 293° |
| 2026-04-28 10:49 | -6.12195 | 106.63869 | 45 ft | 0 kts | 333° |
| 2026-04-28 10:55 | -6.12194 | 106.63870 | 45 ft | 1 kts | 338° |
| 2026-04-28 10:55 | -6.12131 | 106.63897 | 45 ft | 21 kts | 40° |
| 2026-04-28 10:55 | -6.12012 | 106.64078 | 44 ft | 44 kts | 69° |
| 2026-04-28 10:56 | -6.11813 | 106.64580 | 42 ft | 110 kts | 68° |
| 2026-04-28 10:56 | -6.11452 | 106.65477 | 96 ft | 161 kts | 66° |
| 2026-04-28 10:56 | -6.10619 | 106.66232 | 523 ft | 177 kts | 13° |
| 2026-04-28 10:56 | -6.09397 | 106.65939 | 1113 ft | 190 kts | 329° |
| 2026-04-28 10:57 | -6.08290 | 106.65160 | 1670 ft | 203 kts | 328° |
| 2026-04-28 10:57 | -6.07012 | 106.64406 | 2019 ft | 222 kts | 330° |
| 2026-04-28 10:57 | -6.05644 | 106.63551 | 2406 ft | 242 kts | 326° |
| 2026-04-28 10:57 | -6.04195 | 106.62550 | 2831 ft | 261 kts | 324° |
| 2026-04-28 10:58 | -6.02705 | 106.61457 | 3484 ft | 269 kts | 323° |
| 2026-04-28 10:58 | -6.01207 | 106.60332 | 4194 ft | 274 kts | 322° |
| 2026-04-28 10:58 | -5.99654 | 106.59154 | 4958 ft | 278 kts | 322° |
| 2026-04-28 10:58 | -5.98104 | 106.57970 | 5819 ft | 283 kts | 322° |
| 2026-04-28 10:59 | -5.96527 | 106.56763 | 7029 ft | 286 kts | 323° |
| 2026-04-28 10:59 | -5.94958 | 106.55560 | 8225 ft | 289 kts | 323° |
| 2026-04-28 10:59 | -5.93341 | 106.54321 | 9377 ft | 295 kts | 323° |
| 2026-04-28 10:59 | -5.91692 | 106.53056 | 10351 ft | 303 kts | 323° |
| 2026-04-28 11:00 | -5.89958 | 106.51727 | 10876 ft | 325 kts | 323° |
| 2026-04-28 11:00 | -5.88094 | 106.50298 | 11310 ft | 347 kts | 323° |
| 2026-04-28 11:00 | -5.86140 | 106.48798 | 11972 ft | 358 kts | 323° |
| 2026-04-28 11:00 | -5.84149 | 106.47253 | 12578 ft | 365 kts | 321° |
| 2026-04-28 11:01 | -5.82392 | 106.45392 | 13176 ft | 369 kts | 307° |
| 2026-04-28 11:01 | -5.80785 | 106.43387 | 13728 ft | 372 kts | 309° |
| 2026-04-28 11:01 | -5.79165 | 106.41316 | 13989 ft | 384 kts | 307° |
| 2026-04-28 11:01 | -5.78028 | 106.39737 | 13737 ft | 0 kts | 296° |